Date,TemperatureHighF,TemperatureAvgF,TemperatureLowF,DewpointHighF,DewpointAvgF,DewpointLowF,HumidityHigh,HumidityAvg,HumidityLow,PressureMaxIn,PressureMinIn,WindSpeedMaxMPH,WindSpeedAvgMPH,GustSpeedMaxMPH,PrecipitationSumIn
2013-1-1,19.4,2.5,-17.0,13.4,-8.7,-27.0,77,59,44,30.23,29.99,9,2,9,0.00
2013-1-2,21.2,19.2,16.5,17.0,12.9,9.2,84,76,64,30.05,29.91,11,3,11,0.00
2013-1-3,20.3,13.8,8.4,15.1,0.8,-7.7,80,56,47,30.23,30.05,17,6,17,0.00
2013-1-4,33.1,18.9,6.1,18.3,6.7,-6.2,81,60,41,30.11,29.96,11,3,11,0.00
2013-1-5,29.1,14.5,2.1,14.9,2.7,-10.0,82,60,42,30.05,29.82,11,2,11,0.00
2013-1-6,27.9,16.1,8.2,13.3,4.8,-6.9,86,63,41,30.20,29.96,13,4,13,0.00
2013-1-7,38.8,28.1,16.9,19.3,16.0,9.6,78,61,43,29.96,29.85,20,5,20,0.00
2013-1-8,39.4,25.1,7.7,26.9,16.6,2.6,87,71,45,29.96,29.73,14,3,14,0.00
2013-1-9,36.0,28.3,14.9,25.3,15.2,7.2,79,59,42,30.32,29.88,26,5,26,0.00
2013-1-10,44.2,32.9,20.3,20.5,18.6,14.1,81,57,36,30.26,30.05,14,5,14,0.00
2013-1-11,44.2,44.2,44.2,19.0,19.0,19.0,36,36,36,30.05,30.05,3,3,3,0.00
2013-1-12,44.2,20.4,2.5,19.0,1.0,-13.6,46,43,36,30.05,29.82,3,0,3,0.12
2013-1-13,3.2,1.5,-1.3,-12.9,-14.4,-17.1,46,46,46,30.20,30.02,0,0,0,0.00
2013-1-14,13.5,5.4,-0.6,-3.6,-10.9,-16.4,46,46,46,30.38,30.20,0,0,0,0.00
2013-1-15,28.4,17.5,3.7,12.7,1.5,-12.4,80,49,40,30.23,29.79,13,2,13,55.39
2013-1-16,39.7,25.4,9.5,31.0,10.0,-11.5,88,54,35,30.23,29.61,18,7,18,0.00
2013-1-17,18.9,13.2,6.4,3.9,-3.5,-12.3,61,47,37,30.35,30.23,13,3,13,0.00
2013-1-18,43.5,26.5,15.4,26.5,15.7,4.1,81,65,42,30.26,29.70,15,4,15,0.00
2013-1-19,39.4,21.0,-0.4,30.7,11.7,-12.9,94,68,42,30.20,29.67,33,7,33,0.00
2013-1-20,11.3,1.2,-4.5,-1.9,-11.2,-16.8,55,55,55,30.38,30.20,19,6,19,0.00
2013-1-21,-1.3,-8.3,-14.1,-13.5,-20.1,-25.6,55,55,55,30.32,30.23,20,6,20,0.00
2013-1-22,5.9,-5.1,-18.9,-6.8,-17.1,-30.1,55,55,55,30.35,30.20,11,3,11,0.00
2013-1-23,17.4,4.9,-8.0,0.5,-10.3,-24.0,55,49,43,30.58,30.11,25,8,25,0.00
2013-1-24,10.6,1.0,-9.4,-7.0,-15.8,-25.4,44,44,44,30.64,30.11,13,4,13,0.00
2013-1-25,20.3,11.9,0.0,5.7,-4.6,-16.8,59,47,42,30.29,29.91,23,7,23,0.00
2013-1-26,23.2,10.7,-6.5,5.3,-7.1,-22.7,47,44,37,30.32,30.08,11,3,11,0.00
2013-1-27,34.2,27.8,20.1,28.2,16.9,4.7,94,65,43,30.08,29.79,11,3,11,0.00
2013-1-28,40.1,32.7,27.9,36.6,29.9,26.6,98,90,70,29.88,29.64,10,1,10,0.08
2013-1-29,38.7,32.4,25.3,34.4,26.0,14.3,98,79,58,29.73,29.52,20,5,20,0.00
2013-1-30,25.2,16.6,5.9,14.7,3.6,-7.9,69,56,47,29.73,29.64,24,11,24,0.00
2013-1-31,6.4,0.9,-9.9,-7.4,-12.6,-22.7,52,52,52,30.23,29.73,22,10,22,0.00
2013-2-1,9.5,-3.7,-17.7,-4.6,-16.9,-30.0,52,52,52,30.29,30.02,13,3,13,0.00
2013-2-2,21.4,7.2,-2.4,-0.5,-11.0,-15.7,52,43,34,30.14,29.96,10,4,10,0.00
2013-2-3,22.8,10.9,0.7,0.5,-8.8,-20.0,45,40,36,30.05,29.96,14,4,14,0.00
2013-2-4,23.4,10.3,-2.6,0.4,-9.1,-18.6,45,41,33,30.05,29.70,11,4,11,0.00
2013-2-5,30.7,18.9,-2.2,21.0,6.5,-16.7,83,60,38,30.05,29.64,20,5,20,0.00
2013-2-6,28.6,15.3,-2.6,17.0,3.6,-17.0,75,60,49,30.08,29.91,11,3,11,0.00
2013-2-7,29.8,25.2,22.8,21.6,18.0,14.0,92,74,53,30.23,29.96,20,8,20,0.00
2013-2-8,34.3,20.9,3.6,18.6,6.8,-7.2,78,56,35,30.35,30.17,11,3,11,0.00
2013-2-9,33.6,28.9,20.3,27.5,21.6,12.4,91,75,58,30.17,29.91,16,6,16,0.00
2013-2-10,35.8,29.9,26.8,32.2,27.1,22.0,98,89,79,29.91,29.28,15,5,15,0.00
2013-2-11,31.8,25.1,9.9,29.5,14.8,-0.7,98,67,43,30.02,29.34,24,9,24,0.00
2013-2-12,40.3,24.1,7.9,18.8,11.6,-2.4,81,61,38,29.99,29.79,13,4,13,0.00
2013-2-13,50.9,31.3,18.5,31.4,19.8,12.0,97,66,32,29.79,29.55,12,2,12,0.08
2013-2-14,34.5,24.9,11.1,31.5,12.0,-7.5,98,62,32,30.14,29.58,22,4,22,0.00
2013-2-15,22.3,10.2,-2.0,-1.0,-9.4,-20.9,44,40,35,30.26,30.14,15,6,15,0.00
2013-2-16,23.5,1.3,-6.2,-1.2,-18.6,-24.7,39,38,33,30.23,30.08,5,0,5,0.00
2013-2-17,37.0,21.1,-3.5,15.1,2.7,-23.7,69,45,36,30.08,29.61,17,5,17,0.00
2013-2-18,35.4,23.2,7.9,25.6,11.7,-4.2,76,61,44,29.79,29.49,22,6,22,0.00
2013-2-19,11.8,5.3,-1.8,-0.6,-6.7,-13.7,57,57,57,30.32,29.79,26,11,26,0.00
2013-2-20,23.4,3.9,-15.3,0.9,-13.0,-26.1,57,46,33,30.44,30.32,10,2,10,0.00
2013-2-21,29.8,12.8,-8.3,12.6,-6.2,-26.6,70,42,33,30.44,30.08,15,4,15,0.00
2013-2-22,39.2,24.7,13.3,18.0,14.1,6.0,86,66,40,30.08,29.85,13,5,13,0.00
2013-2-23,48.9,25.8,10.8,22.0,14.6,3.5,87,65,32,29.93,29.82,10,3,10,0.00
2013-2-24,51.4,20.7,-0.2,21.7,6.2,-7.9,79,56,29,30.08,29.93,8,1,8,0.04
2013-2-25,46.0,25.4,8.4,22.9,11.6,-2.4,82,58,33,30.08,30.02,8,1,8,0.00
2013-2-26,39.2,25.2,7.9,27.0,13.8,-1.4,88,63,44,30.05,29.88,17,6,17,0.00
2013-2-27,44.2,31.7,25.2,22.4,19.4,17.0,79,62,37,30.02,29.88,23,9,23,0.00
2013-2-28,33.6,28.2,21.0,17.6,13.6,8.4,65,54,45,30.20,30.02,17,8,17,0.00
2013-3-1,35.8,24.0,8.4,13.7,9.1,-0.6,67,53,40,30.32,30.20,16,6,16,0.00
2013-3-2,38.7,19.3,-1.8,19.1,1.5,-10.1,75,49,27,30.32,30.14,9,2,9,0.00
2013-3-3,38.3,25.5,10.9,9.4,4.1,-4.5,61,41,29,30.14,29.96,14,4,14,0.00
2013-3-4,27.5,24.7,23.0,19.7,10.9,1.0,85,57,35,30.02,29.93,15,5,15,0.00
2013-3-5,37.9,26.7,19.0,22.8,19.1,14.3,91,75,48,30.29,29.96,17,6,17,0.00
2013-3-6,41.2,21.1,0.9,16.5,8.0,-10.3,86,59,33,30.38,30.29,13,4,13,0.00
2013-3-7,43.0,18.9,-1.8,15.2,2.1,-12.7,75,49,31,30.35,30.26,11,2,11,0.00
2013-3-8,47.3,30.7,11.8,26.5,17.0,1.0,81,59,36,30.29,30.05,10,3,10,0.04
2013-3-9,38.5,35.4,33.1,38.0,33.1,23.0,98,92,61,30.05,29.67,10,3,10,0.43
2013-3-10,36.3,33.0,28.6,33.7,24.9,18.3,98,73,54,29.96,29.79,25,13,26,0.00
2013-3-11,34.3,27.7,20.3,18.5,16.2,10.8,71,62,46,29.88,29.73,19,9,19,0.00
2013-3-12,34.0,24.9,16.3,14.1,8.7,1.7,76,51,35,30.17,29.79,24,8,24,0.00
2013-3-13,39.7,23.2,8.6,12.7,7.1,2.0,86,53,30,30.35,30.17,11,4,11,0.00
2013-3-14,53.8,34.3,21.9,27.5,18.5,9.0,87,56,30,30.23,29.99,8,3,8,0.04
2013-3-15,39.2,31.0,21.9,31.6,23.6,17.6,90,75,52,29.99,29.85,16,5,16,0.00
2013-3-16,33.1,20.6,7.5,17.6,6.6,-8.5,83,57,35,30.23,29.91,17,8,17,0.00
2013-3-17,35.2,17.2,-2.6,7.9,-3.2,-17.8,52,40,30,30.26,29.85,15,5,15,0.00
2013-3-18,30.7,23.5,11.3,27.4,11.4,-1.9,94,62,40,29.85,29.58,24,8,24,0.00
2013-3-19,30.4,15.4,5.9,3.9,-4.0,-14.1,55,43,31,30.17,29.79,19,9,19,0.00
2013-3-20,25.0,13.1,3.2,0.4,-9.0,-18.3,40,36,33,30.17,30.08,21,8,21,0.00
2013-3-21,35.6,14.3,-7.6,7.8,-7.0,-25.5,60,38,31,30.11,30.02,10,2,10,0.00
2013-3-22,48.7,21.4,-3.1,17.3,-0.4,-19.6,72,39,24,30.08,30.02,8,1,8,0.00
2013-3-23,51.8,28.6,7.3,24.0,9.4,-2.4,75,47,26,30.14,30.05,8,2,8,0.00
2013-3-24,39.2,30.6,26.1,22.7,16.2,12.6,80,56,39,30.08,29.96,22,6,22,0.00
2013-3-25,39.9,30.4,19.2,15.5,12.3,8.0,68,48,35,30.20,30.05,20,8,20,0.00
2013-3-26,50.0,33.4,23.4,20.9,14.0,7.9,62,46,28,30.26,30.20,13,4,13,0.00
2013-3-27,50.9,33.7,19.8,23.3,12.8,4.7,69,45,27,30.32,30.26,9,2,10,0.00
2013-3-28,52.9,32.6,13.3,31.0,12.9,6.0,80,48,26,30.32,30.26,9,2,9,0.00
2013-3-29,57.0,39.6,21.4,31.6,23.6,10.6,75,55,33,30.26,30.05,13,3,13,0.00
2013-3-30,54.5,43.3,33.3,45.9,33.9,29.0,96,71,41,30.05,29.82,11,5,11,0.35
2013-3-31,40.6,33.2,21.9,31.0,18.8,5.9,92,59,32,30.08,29.79,26,10,26,0.00
2013-4-1,35.6,24.8,14.9,9.9,7.0,4.3,65,47,33,30.23,30.08,17,8,17,0.00
2013-4-2,37.8,25.7,13.5,14.0,8.6,1.2,81,51,31,30.32,30.23,15,4,15,0.00
2013-4-3,50.2,33.4,11.8,27.8,14.5,2.2,78,48,27,30.38,29.99,16,5,16,0.00
2013-4-4,50.0,42.0,24.4,29.9,22.0,10.8,70,46,32,30.17,29.96,20,8,20,0.00
2013-4-5,48.2,33.0,19.0,31.1,19.1,10.7,90,61,28,30.23,29.91,14,4,15,0.00
2013-4-6,56.3,40.7,34.3,37.5,30.0,20.4,95,68,35,29.91,29.52,15,6,15,0.16
2013-4-7,54.1,41.3,32.5,34.1,28.4,24.5,88,63,36,29.93,29.73,10,3,10,0.12
2013-4-8,47.7,40.9,37.9,42.6,36.8,32.9,98,86,69,30.05,29.70,14,5,14,0.28
2013-4-9,48.4,38.8,34.0,34.2,23.5,14.7,86,56,37,30.17,29.99,26,10,26,0.00
2013-4-10,43.5,36.9,32.9,20.6,16.1,13.1,51,42,36,30.17,29.91,26,8,26,0.00
2013-4-11,41.9,34.2,28.6,33.3,23.9,13.0,95,68,40,29.93,29.70,18,7,18,0.12
2013-4-12,44.6,32.3,27.0,27.0,23.3,17.6,93,72,40,29.85,29.67,17,7,17,0.04
2013-4-13,46.2,31.6,17.2,25.9,18.5,7.2,90,61,38,29.93,29.82,11,3,11,0.04
2013-4-14,36.9,30.8,17.1,34.0,24.3,7.3,98,78,49,29.93,29.49,17,3,17,0.04
2013-4-15,45.1,36.5,31.1,34.9,24.8,20.8,98,64,41,29.93,29.49,24,8,24,0.04
2013-4-16,51.6,39.1,29.3,24.2,21.1,14.4,67,50,32,30.29,29.93,14,4,15,0.00
2013-4-17,43.7,36.0,27.3,32.0,24.3,18.7,95,64,44,30.32,29.93,18,5,18,0.04
2013-4-18,33.4,32.1,30.7,32.9,31.3,30.0,98,97,90,29.93,29.52,25,12,25,0.04
2013-4-19,41.5,33.0,27.0,30.6,19.8,4.6,98,62,37,29.96,29.49,26,6,26,0.04
2013-4-20,54.1,32.5,10.4,15.9,6.3,-2.9,64,36,18,30.29,29.96,10,2,10,0.04
2013-4-21,50.4,39.9,29.5,43.3,29.8,11.9,96,69,43,30.29,29.99,18,5,18,0.20
2013-4-22,46.8,37.6,31.6,37.3,27.6,18.0,98,71,38,30.23,30.11,26,9,26,0.04
2013-4-23,45.1,34.6,25.2,31.1,20.3,10.4,98,61,31,30.14,30.05,17,7,17,0.12
2013-4-24,55.8,36.0,20.7,36.3,23.4,11.8,93,65,27,30.05,29.88,25,4,25,0.04
2013-4-25,55.0,41.8,27.7,31.8,23.9,15.1,93,54,28,30.17,29.96,14,4,14,0.04
2013-4-26,78.1,57.2,40.6,37.2,30.1,21.2,59,37,21,30.11,29.93,13,4,13,0.04
2013-4-27,81.0,57.8,31.3,45.6,29.1,18.5,86,41,12,30.11,29.88,14,2,14,0.04
2013-4-28,83.1,65.3,50.2,50.0,40.3,36.1,84,44,21,29.88,29.64,18,6,18,0.04
2013-4-29,79.2,62.0,45.7,52.9,36.9,28.8,85,44,20,29.82,29.55,13,4,13,0.04
2013-4-30,73.2,64.6,54.9,55.2,39.5,20.1,75,44,17,29.93,29.40,20,6,20,0.04
2013-5-1,54.9,41.7,33.4,34.9,25.8,19.1,98,56,36,30.47,29.93,18,7,18,0.08
2013-5-2,49.8,40.0,34.7,23.0,20.6,17.5,59,46,34,30.53,30.41,22,11,22,0.04
2013-5-3,39.4,34.2,30.2,31.6,25.5,18.3,95,71,50,30.41,30.17,27,10,27,0.08
2013-5-4,48.0,38.9,32.5,37.0,33.5,29.3,98,82,60,30.17,30.11,16,7,16,0.04
2013-5-5,70.5,50.4,37.0,40.0,36.1,31.8,88,62,32,30.17,30.05,13,5,13,0.04
2013-5-6,84.9,58.9,38.8,45.2,38.7,34.9,93,54,20,30.11,29.99,10,2,10,0.04
2013-5-7,54.9,47.6,43.3,51.9,42.6,39.6,92,83,69,30.05,30.02,0,0,0,0.00
2013-7-19,70.9,68.2,66.7,61.4,59.4,57.0,77,73,68,29.91,29.88,11,1,11,0.04
2013-7-20,86.7,71.5,60.4,68.8,53.8,44.0,95,59,26,29.96,29.88,13,3,13,0.00
2013-7-21,87.6,69.8,55.6,64.7,56.0,48.2,85,64,37,29.96,29.82,10,3,10,0.00
2013-7-22,90.5,75.7,65.7,66.7,59.4,48.9,90,61,28,29.88,29.70,20,6,20,0.00
2013-7-23,81.5,67.4,55.2,59.4,47.3,41.5,92,52,27,30.02,29.88,15,5,15,0.00
2013-7-24,86.9,66.3,52.0,61.2,51.6,45.3,95,65,27,30.08,29.96,8,1,8,0.00
2013-7-25,87.8,72.9,59.4,72.0,57.3,51.5,95,62,33,29.99,29.91,15,2,15,0.00
2013-7-26,72.5,63.6,55.6,61.2,50.1,39.2,92,63,40,30.11,29.91,26,7,26,0.04
2013-7-27,66.9,56.1,50.9,51.9,45.4,38.1,93,68,41,30.11,29.96,24,6,24,0.08
2013-7-28,77.9,60.8,47.7,47.6,45.0,41.4,87,60,31,30.08,29.96,13,4,13,0.00
2013-7-29,88.7,66.3,45.9,65.3,48.0,42.0,95,58,22,30.14,30.05,10,2,11,0.00
2013-7-30,76.1,66.1,60.1,68.2,60.3,56.3,97,83,54,30.11,30.05,6,1,6,0.28
2013-7-31,84.6,67.8,55.2,68.8,53.9,41.9,98,67,28,30.08,29.99,15,2,15,0.00
2013-8-1,90.1,65.6,49.3,63.9,48.5,42.0,94,61,21,30.05,29.88,11,2,11,0.00
2013-8-2,68.9,57.9,52.7,61.5,53.6,49.8,93,86,55,29.93,29.88,6,1,6,0.00
2013-8-4,86.7,70.7,55.8,53.0,44.6,39.4,80,43,22,30.17,30.02,4,3,4,0.00
2013-8-5,91.2,70.4,59.7,72.6,59.1,52.5,98,71,30,30.02,29.79,14,2,14,0.35
2013-8-6,90.1,68.2,53.4,70.3,56.7,0.0,97,72,34,29.88,29.67,22,2,22,0.12
2013-8-7,80.4,65.6,54.1,61.3,50.2,39.5,98,64,24,30.05,29.79,15,4,15,0.00
2013-8-8,83.8,66.3,50.9,65.3,51.6,45.1,96,65,30,30.05,29.99,11,2,11,0.00
2013-8-9,81.9,66.4,53.6,62.0,50.4,40.8,96,62,27,30.14,29.99,15,3,15,0.00
2013-8-10,86.2,66.4,51.8,63.3,48.3,42.9,94,58,23,30.20,30.11,6,1,8,0.00
2013-8-11,90.9,70.5,56.3,64.4,55.1,47.9,92,64,24,30.11,29.99,9,1,9,0.00
2013-8-12,84.0,68.1,55.0,63.7,50.9,43.6,96,60,25,30.08,30.02,15,4,15,0.00
2013-8-13,81.3,63.5,49.5,62.3,44.4,33.2,96,58,22,30.20,30.08,14,2,14,0.00
2013-8-14,84.7,65.1,47.5,62.3,46.6,39.2,96,59,23,30.20,30.11,10,1,10,0.00
2013-8-15,88.2,65.3,46.8,65.2,49.7,44.3,95,64,26,30.14,30.08,11,2,11,0.00
2013-8-16,88.3,69.7,55.0,67.1,51.2,43.3,94,59,24,30.20,30.14,10,2,10,0.00
2013-8-17,87.6,68.3,49.6,66.6,48.9,44.7,96,57,24,30.20,30.11,14,3,14,0.00
2013-8-18,88.3,70.9,50.9,67.1,50.2,44.6,95,54,24,30.14,30.02,15,4,15,0.00
2013-8-19,91.9,78.0,67.1,63.3,57.7,51.7,70,51,31,30.02,29.91,13,4,13,0.00
2013-8-20,96.6,81.0,69.8,68.1,63.3,60.3,86,58,33,29.93,29.88,13,4,13,0.00
2013-8-21,93.2,79.0,65.7,73.4,65.6,51.5,94,66,34,30.02,29.85,11,3,11,0.00
2013-8-22,88.5,72.1,55.9,58.5,46.3,37.9,86,47,19,30.14,30.02,13,4,13,0.00
2013-8-23,92.7,72.2,50.2,64.2,52.4,46.5,95,57,23,30.17,30.05,11,3,11,0.00
2013-8-24,93.7,80.7,69.3,68.0,62.3,57.7,78,56,32,30.08,29.93,22,7,22,0.00
2013-8-25,99.9,86.4,78.1,70.4,66.1,61.8,69,53,30,30.02,29.93,15,8,15,0.00
2013-8-26,101.8,87.6,76.5,74.8,68.6,61.3,87,57,28,29.99,29.85,11,4,11,0.00
2013-8-27,95.5,83.8,69.8,79.4,69.5,64.9,90,65,41,29.96,29.82,13,4,13,0.00
2013-8-28,95.4,77.0,66.0,78.8,62.8,53.2,98,68,26,30.05,29.93,9,2,9,0.00
2013-8-29,97.2,81.3,67.8,77.3,67.0,54.9,96,67,30,30.02,29.85,12,3,12,0.12
2013-8-30,87.1,76.3,64.2,67.3,60.9,54.5,78,61,34,29.96,29.85,17,4,17,0.00
2013-8-31,92.1,73.0,57.9,72.3,58.9,53.8,97,67,28,29.93,29.73,16,2,16,0.16
2013-9-1,76.6,67.6,58.8,61.6,54.3,48.5,91,64,44,30.02,29.79,15,6,15,0.00
2013-9-2,69.6,59.1,47.5,53.0,46.9,43.3,91,66,41,30.11,30.02,12,4,12,0.00
2013-9-3,83.5,61.4,40.6,60.3,47.3,39.2,97,66,29,30.11,30.02,11,2,11,0.00
2013-9-4,87.1,68.8,52.3,66.4,53.4,49.2,97,63,30,30.20,30.05,11,3,11,0.00
2013-9-5,87.4,70.7,54.0,60.3,52.3,44.2,92,57,25,30.26,30.11,10,2,10,0.00
2013-9-6,93.6,79.7,66.6,71.2,60.1,52.8,94,57,27,30.11,29.88,17,4,17,0.00
2013-9-7,95.7,79.2,65.1,70.7,59.6,52.1,94,55,26,30.05,29.88,16,4,16,0.00
2013-9-8,76.3,66.6,62.1,57.2,52.5,43.2,80,61,42,30.08,29.91,13,4,13,0.00
2013-9-9,88.2,74.8,65.1,71.2,66.9,57.2,95,78,49,29.93,29.67,13,3,13,0.04
2013-9-10,85.8,73.3,61.5,69.6,60.3,47.9,92,68,30,30.02,29.79,10,3,10,0.00
2013-9-11,86.5,70.8,56.8,68.7,49.8,38.6,96,55,20,30.08,29.99,18,4,18,0.00
2013-9-12,75.2,61.0,45.3,53.9,42.2,34.8,94,54,26,30.26,30.08,18,5,18,0.00
2013-9-13,74.1,55.0,36.9,56.9,37.7,33.7,94,60,25,30.32,30.11,10,1,10,0.00
2013-9-14,78.1,57.2,41.5,56.5,46.1,38.7,98,73,28,30.11,29.93,13,2,13,0.43
2013-9-15,68.5,57.4,42.3,58.1,50.3,37.2,98,80,44,30.35,29.91,90,4,90,0.24
2013-9-16,68.9,49.9,34.2,47.7,34.6,29.2,97,63,24,30.44,30.26,9,2,9,0.00
2013-9-17,72.5,55.4,37.8,57.7,45.1,34.3,97,72,38,30.29,29.96,17,4,17,0.00
2013-9-18,74.7,66.7,58.8,70.8,64.1,57.7,98,92,70,29.96,29.73,10,3,10,0.00
2013-9-19,78.8,69.4,60.6,75.7,66.0,58.6,98,90,54,29.82,29.67,23,3,23,0.63
2013-9-20,67.3,58.4,48.0,58.7,48.1,38.5,95,71,36,29.96,29.82,19,5,19,0.00
2013-9-21,66.6,52.7,40.8,48.5,41.5,36.4,98,70,36,30.02,29.93,10,2,10,0.00
2013-9-22,72.3,56.1,37.8,50.3,43.4,35.7,98,67,38,29.99,29.88,15,4,15,0.00
2013-9-23,74.8,63.0,52.7,49.8,45.8,42.4,78,56,33,29.96,29.91,17,5,17,0.00
2013-9-24,78.6,60.6,46.9,55.6,45.6,41.8,95,63,30,29.99,29.93,12,2,12,0.00
2013-9-25,76.3,59.4,44.6,58.7,45.2,41.2,97,65,32,29.99,29.91,14,2,14,0.00
2013-9-26,81.9,67.1,52.9,56.4,50.6,45.3,90,59,33,29.96,29.85,18,5,18,0.00
2013-9-27,86.0,73.3,66.0,59.7,55.1,50.4,71,55,31,29.93,29.82,23,7,23,0.00
2013-9-28,74.3,60.6,43.0,63.3,50.0,37.5,96,70,46,29.96,29.67,22,5,22,0.20
2013-9-29,76.5,58.4,39.2,53.9,39.2,34.6,97,57,23,29.99,29.82,15,3,15,0.00
2013-9-30,80.1,68.2,58.3,45.9,41.7,36.5,51,39,26,29.82,29.61,13,6,15,0.00
2013-10-1,76.1,64.2,41.5,48.6,37.4,25.3,74,41,18,29.99,29.61,17,4,17,0.00
2013-10-2,77.7,55.6,36.1,54.0,38.8,31.4,98,63,21,30.08,29.88,42,3,42,0.24
2013-10-3,57.6,55.5,54.0,57.0,54.7,52.3,98,97,94,29.99,29.88,16,5,16,0.08
2013-10-4,59.7,56.3,53.2,55.8,52.5,50.2,98,87,72,30.02,29.91,16,6,16,0.16
2013-10-5,59.5,54.6,44.6,58.8,53.5,42.1,98,96,85,29.91,29.76,12,2,12,0.24
2013-10-6,53.1,47.2,40.1,52.0,45.9,39.6,98,95,81,29.88,29.70,15,3,15,0.12
2013-10-7,67.6,49.6,35.8,55.9,38.2,31.6,98,72,27,29.99,29.85,14,2,14,0.00
2013-10-8,78.1,61.4,40.1,44.0,39.1,35.2,92,50,24,29.99,29.85,22,6,22,0.00
2013-10-9,77.5,64.4,51.6,47.1,42.4,38.6,75,46,30,30.05,29.93,13,5,13,0.00
2013-10-10,79.2,61.0,46.0,47.6,43.5,39.9,88,57,28,30.05,29.91,14,4,14,0.00
2013-10-11,75.7,65.8,55.4,55.7,48.0,43.3,87,55,33,29.91,29.67,25,7,25,0.16
2013-10-12,59.9,50.1,39.9,54.5,39.8,33.8,87,69,42,30.20,29.73,18,5,18,0.04
2013-10-13,63.5,44.9,30.0,45.8,31.7,25.3,96,66,27,30.47,30.20,11,1,11,0.00
2013-10-14,55.6,45.2,33.4,45.9,34.7,28.7,93,69,40,30.44,30.02,11,2,11,0.28
2013-10-15,52.7,48.8,44.6,52.2,48.2,44.1,98,98,93,30.02,29.73,22,5,22,0.94
2013-10-16,57.2,44.9,31.6,44.1,35.2,25.5,98,73,36,29.99,29.91,15,4,15,0.00
2013-10-17,62.1,44.9,31.8,47.7,37.9,26.8,98,80,36,29.93,29.85,15,2,15,0.47
2013-10-18,57.6,43.6,34.5,45.9,32.4,22.5,98,71,29,30.05,29.91,15,4,15,0.16
2013-10-19,50.2,39.1,27.7,41.2,31.7,23.5,95,77,37,29.91,29.76,13,3,13,0.04
2013-10-20,40.6,34.0,26.6,39.1,32.5,24.0,98,94,87,29.99,29.70,12,2,12,0.20
2013-10-21,41.5,33.6,23.5,32.9,17.8,13.8,88,53,38,30.61,29.99,19,5,19,0.00
2013-10-22,43.5,31.9,20.1,32.6,24.2,15.5,96,75,45,31.79,30.35,14,2,14,0.00
2013-10-23,40.3,33.5,30.0,32.7,22.3,12.6,98,67,41,32.00,30.79,15,4,15,0.00
2013-10-24,44.1,36.7,31.3,27.5,21.0,15.3,74,54,38,32.00,31.56,16,4,16,0.00
2013-10-25,56.7,43.2,25.3,38.1,28.6,19.8,85,59,38,32.00,31.94,19,4,19,0.00
2013-10-26,49.5,41.7,31.8,35.0,23.3,18.4,69,48,37,32.00,32.00,26,7,26,0.00
2013-10-27,58.8,40.8,26.6,33.2,24.3,17.3,87,56,30,32.00,32.00,23,4,23,0.00
2013-10-28,45.9,36.0,27.9,25.9,18.4,8.7,75,51,29,32.00,30.38,17,6,17,0.00
2013-10-29,38.8,34.6,26.4,31.9,24.5,19.6,82,67,51,30.41,30.08,13,3,13,0.04
2013-10-30,48.7,43.4,36.7,47.4,41.9,31.7,98,94,82,30.08,29.67,6,1,6,0.04
2013-10-31,47.3,42.5,38.8,46.8,41.3,36.8,98,96,86,29.67,29.40,11,2,11,0.08
2013-11-1,52.9,41.8,33.1,39.8,32.4,24.2,98,73,38,29.85,29.40,16,4,16,0.00
2013-11-2,50.5,37.0,25.9,33.7,24.6,18.6,93,64,35,30.08,29.85,13,3,13,0.00
2013-11-3,56.7,42.6,25.9,30.5,26.2,20.0,88,56,34,30.11,29.88,26,6,26,0.00
2013-11-4,49.1,42.3,26.8,44.2,31.0,22.6,89,66,43,30.14,29.82,25,5,25,0.08
2013-11-5,46.6,32.6,22.1,42.2,26.3,18.7,98,81,37,30.23,30.02,10,2,10,0.08
2013-11-6,39.4,31.9,23.0,32.8,26.2,18.2,98,81,50,30.14,30.02,8,1,8,0.24
2013-11-7,40.3,26.8,15.6,32.8,20.6,12.4,92,78,48,30.23,30.14,12,1,12,0.04
2013-11-8,43.5,32.1,16.7,35.3,22.4,13.6,94,70,43,30.17,29.58,21,3,21,0.00
2013-11-9,44.1,40.0,36.7,37.5,27.6,18.4,88,62,43,30.17,29.61,26,8,26,0.04
2013-11-10,46.0,36.8,26.2,27.5,22.9,15.7,73,57,40,30.32,30.08,23,5,23,0.00
2013-11-11,35.8,24.0,11.7,27.0,7.2,-0.6,70,49,38,30.70,30.11,23,9,23,0.00
2013-11-12,29.5,19.3,8.6,8.4,2.8,-2.8,61,49,33,30.73,30.41,12,4,12,0.00
2013-11-13,49.8,35.5,17.8,27.0,18.3,5.9,67,50,36,30.41,29.85,17,5,17,0.00
2013-11-14,52.2,38.4,25.2,32.0,27.4,20.2,81,66,42,29.85,29.73,9,2,9,0.00
2013-11-15,56.1,39.7,22.5,41.0,28.3,19.7,93,67,37,29.85,29.64,11,3,11,0.00
2013-11-16,46.4,43.5,38.8,45.3,40.0,29.5,98,88,59,29.64,29.26,12,3,12,0.04
2013-11-17,45.3,39.2,31.1,42.3,32.5,16.8,98,78,55,29.82,29.31,25,6,25,0.04
2013-11-18,34.7,26.6,15.1,17.7,12.7,7.5,76,56,42,30.23,29.82,26,7,26,0.00
2013-11-19,47.3,33.1,13.8,23.5,18.4,8.4,89,58,37,30.26,29.91,23,6,23,0.00
2013-11-20,47.5,42.0,36.9,31.6,24.0,19.1,81,51,38,30.02,29.85,17,5,17,0.00
2013-11-21,37.0,30.4,22.8,34.5,21.7,7.8,94,71,49,30.50,30.02,19,7,19,0.00
2013-11-22,34.5,21.3,9.5,10.6,4.1,-5.9,77,49,25,30.61,30.41,21,7,21,0.00
2013-11-23,18.0,8.2,0.0,-1.4,-10.6,-20.6,47,41,35,30.79,30.61,17,5,17,0.00
2013-11-24,30.9,18.9,-0.6,9.8,-2.0,-21.1,54,39,35,30.67,29.93,17,6,19,0.00
2013-11-25,39.6,32.9,26.8,25.5,16.7,9.6,76,51,41,30.05,29.88,24,7,24,0.00
2013-11-26,28.8,18.8,6.4,12.2,0.3,-8.4,54,44,36,30.38,30.05,26,9,26,0.00
2013-11-27,23.9,15.1,-0.6,10.2,-2.1,-14.8,76,46,39,30.38,30.05,13,3,13,0.00
2013-11-28,28.0,18.6,2.7,8.1,1.2,-12.6,51,46,41,30.47,30.05,17,4,17,0.00
2013-11-29,33.4,20.4,1.0,16.7,4.0,-14.1,78,49,40,30.50,30.11,18,3,18,0.00
2013-11-30,44.2,29.2,16.3,24.3,16.7,9.5,81,60,39,30.14,30.02,8,3,8,0.00
2013-12-1,37.0,23.1,10.6,26.7,13.7,4.9,85,68,45,30.17,29.91,6,0,6,0.00
2013-12-2,41.2,32.5,24.8,33.7,27.1,18.8,98,81,52,29.91,29.58,11,3,11,0.16
2013-12-3,34.5,33.6,30.4,34.0,33.1,29.9,98,98,98,29.79,29.58,9,1,9,0.00
2013-12-4,31.1,26.7,12.0,29.9,23.8,4.1,98,89,68,29.79,29.46,0,0,0,0.00
2013-12-5,12.0,4.8,-5.3,4.1,-2.8,-12.5,70,70,70,30.29,29.67,0,0,0,0.00
2013-12-6,10.2,-4.5,-14.4,2.2,-11.8,-21.4,70,70,70,30.58,30.29,0,0,0,0.00
2013-12-7,6.8,-10.2,-23.4,-0.9,-17.3,-30.0,70,70,70,30.67,30.53,0,0,0,0.00
2013-12-8,14.4,3.6,-15.2,5.3,-7.6,-22.1,70,60,46,30.53,29.99,0,0,0,0.00
2013-12-9,5.4,-1.3,-9.6,-9.6,-15.8,-23.7,49,49,49,30.08,29.85,0,0,0,0.00
2013-12-10,10.4,3.2,-2.7,-5.1,-11.6,-17.2,49,49,49,30.26,29.76,0,0,0,0.00
2013-12-11,6.3,-4.3,-14.4,-9.0,-18.6,-28.0,49,49,49,30.53,30.26,0,0,0,0.00
2013-12-12,23.5,9.8,-7.6,6.0,-5.7,-21.7,65,49,36,30.26,30.11,0,0,0,0.00
2013-12-13,16.2,11.9,8.1,4.4,-2.4,-8.4,61,52,45,30.29,30.11,15,4,15,0.00
2013-12-14,26.4,9.6,-3.3,12.7,-6.9,-18.6,67,46,40,30.26,30.05,13,4,13,0.00
2013-12-15,7.0,-1.3,-7.4,-9.0,-16.6,-22.3,47,47,47,30.14,30.08,13,4,13,0.00
2013-12-16,21.7,8.0,-1.3,17.7,-4.9,-16.6,84,55,47,30.11,29.85,12,3,12,0.00
2013-12-17,33.4,19.8,-3.5,26.8,7.9,-15.9,89,61,40,30.08,29.82,24,6,24,0.00
2013-12-18,39.2,19.9,-1.1,18.9,6.9,-13.9,88,58,38,30.05,29.61,15,2,15,0.00
2013-12-19,21.6,16.3,12.9,18.6,4.9,-1.1,88,61,44,30.08,29.79,17,8,17,0.00
2013-12-20,26.2,14.1,7.5,7.2,3.3,-3.5,74,63,43,30.02,29.85,14,3,14,0.00
2013-12-21,26.2,17.3,9.7,10.2,7.2,1.3,72,65,45,29.99,29.85,14,2,14,0.00
2013-12-22,21.9,14.4,7.0,10.2,4.5,-3.6,75,65,50,30.20,29.93,15,6,15,0.00
2013-12-23,7.0,-1.6,-16.1,-3.6,-11.7,-25.7,61,61,61,30.47,30.20,13,6,13,0.00
2013-12-24,9.7,-2.9,-23.8,-1.0,-13.0,-32.9,61,61,61,30.47,30.08,14,3,14,0.00
2013-12-25,27.1,14.7,8.6,15.6,3.5,-2.5,77,61,49,30.11,30.02,18,2,18,0.00
2013-12-26,30.7,18.9,6.8,15.2,8.0,-1.5,77,63,45,30.14,30.05,6,1,6,0.00
2013-12-27,44.6,25.9,4.5,27.4,17.0,-3.8,90,70,40,30.14,29.85,14,2,14,0.04
2013-12-28,50.7,30.0,14.4,37.4,23.0,4.6,97,78,37,29.99,29.64,27,5,27,0.04
2013-12-29,14.2,-4.6,-24.9,4.2,-13.3,-32.8,65,65,65,30.29,29.99,25,8,25,0.00
2013-12-30,7.5,-8.0,-25.1,-1.8,-16.7,-33.0,65,65,65,30.26,30.14,6,0,6,0.00
2013-12-31,0.7,-12.2,-22.5,-8.3,-20.6,-30.5,65,65,65,30.38,30.17,8,1,8,0.00
2014-1-1,2.8,-4.1,-11.7,-6.2,-12.9,-20.4,65,65,65,30.47,29.44,10,4,10,0.00
2014-1-2,5.0,-9.3,-21.5,-4.2,-17.9,-29.5,65,65,65,30.47,30.32,9,2,9,0.00